Time,TemperatureF,DewpointF,PressureIn,WindDirection,WindDirectionDegrees,WindSpeedMPH,WindSpeedGustMPH,Humidity,HourlyPrecipIn,Conditions,Clouds,dailyrainin,SoftwareType,DateUTC
2013-01-10 00:01:00,72.5,71.0,30.25,ESE,121,3.0,-999.0,95,-99.99,,,0.01,weatherlink.com 1.10,2013-01-10 05:01:00,
2013-01-10 00:16:00,72.5,71.0,30.25,ESE,113,2.0,-999.0,95,-99.99,,,0.01,weatherlink.com 1.10,2013-01-10 05:16:00,
2013-01-10 01:01:00,71.8,71.0,30.25,ESE,121,0.0,-999.0,96,-99.99,,,0.01,weatherlink.com 1.10,2013-01-10 06:01:00,
2013-01-10 01:16:00,71.6,70.0,30.25,SE,126,0.0,-999.0,96,-99.99,,,0.01,weatherlink.com 1.10,2013-01-10 06:16:00,
2013-01-10 01:31:00,71.5,70.0,30.24,SE,132,0.0,-999.0,96,-99.99,,,0.00,weatherlink.com 1.10,2013-01-10 06:31:00,
2013-01-10 01:46:00,71.4,70.0,30.24,SE,130,0.0,-999.0,95,-99.99,,,0.00,weatherlink.com 1.10,2013-01-10 06:46:00,
2013-01-10 02:02:00,71.2,70.0,30.24,SE,132,0.0,-999.0,96,-99.99,,,0.00,weatherlink.com 1.10,2013-01-10 07:02:00,
2013-01-10 02:17:00,71.3,70.0,30.23,SE,132,0.0,-999.0,96,-99.99,,,0.00,weatherlink.com 1.10,2013-01-10 07:17:00,
2013-01-10 02:32:00,70.9,70.0,30.24,SE,132,0.0,-999.0,96,-99.99,,,0.00,weatherlink.com 1.10,2013-01-10 07:32:00,
2013-01-10 02:47:00,71.3,70.0,30.24,SE,132,0.0,-999.0,96,-99.99,,,0.00,weatherlink.com 1.10,2013-01-10 07:47:00,
2013-01-10 03:02:00,71.0,70.0,30.24,SE,132,0.0,-999.0,96,-99.99,,,0.00,weatherlink.com 1.10,2013-01-10 08:02:00,
2013-01-10 03:17:00,70.7,70.0,30.24,SE,132,0.0,-999.0,96,-99.99,,,0.00,weatherlink.com 1.10,2013-01-10 08:17:00,
2013-01-10 03:32:00,70.5,70.0,30.24,SE,132,0.0,-999.0,97,-99.99,,,0.00,weatherlink.com 1.10,2013-01-10 08:32:00,
2013-01-10 03:47:00,70.2,69.0,30.23,SE,132,0.0,-999.0,97,-99.99,,,0.00,weatherlink.com 1.10,2013-01-10 08:47:00,
2013-01-10 04:02:00,69.5,69.0,30.23,SE,132,0.0,-999.0,97,-99.99,,,0.00,weatherlink.com 1.10,2013-01-10 09:02:00,
2013-01-10 04:17:00,69.8,69.0,30.23,SE,132,0.0,-999.0,98,-99.99,,,0.00,weatherlink.com 1.10,2013-01-10 09:17:00,
2013-01-10 04:32:00,70.1,69.0,30.23,SE,132,0.0,-999.0,97,-99.99,,,0.00,weatherlink.com 1.10,2013-01-10 09:32:00,
2013-01-10 04:47:00,70.2,69.0,30.22,SE,134,0.0,-999.0,97,-99.99,,,0.00,weatherlink.com 1.10,2013-01-10 09:47:00,
2013-01-10 05:02:00,70.1,69.0,30.22,SE,133,0.0,-999.0,96,-99.99,,,0.00,weatherlink.com 1.10,2013-01-10 10:02:00,
2013-01-10 05:17:00,69.9,69.0,30.22,SE,133,0.0,-999.0,96,-99.99,,,0.00,weatherlink.com 1.10,2013-01-10 10:17:00,
2013-01-10 05:47:00,69.9,69.0,30.22,SE,133,0.0,-999.0,97,-99.99,,,0.00,weatherlink.com 1.10,2013-01-10 10:47:00,
2013-01-10 06:02:00,70.1,69.0,30.23,SE,133,0.0,-999.0,96,-99.99,,,0.00,weatherlink.com 1.10,2013-01-10 11:02:00,
2013-01-10 06:17:00,69.6,69.0,30.23,SE,133,0.0,-999.0,96,-99.99,,,0.00,weatherlink.com 1.10,2013-01-10 11:17:00,
2013-01-10 06:32:00,69.2,68.0,30.23,SE,133,0.0,-999.0,97,-99.99,,,0.00,weatherlink.com 1.10,2013-01-10 11:32:00,
2013-01-10 06:47:00,69.2,68.0,30.23,SE,133,0.0,-999.0,97,-99.99,,,0.00,weatherlink.com 1.10,2013-01-10 11:47:00,
2013-01-10 07:02:00,68.9,68.0,30.24,SE,133,0.0,-999.0,97,-99.99,,,0.00,weatherlink.com 1.10,2013-01-10 12:02:00,
2013-01-10 07:17:00,69.5,69.0,30.25,SE,133,0.0,-999.0,98,-99.99,,,0.00,weatherlink.com 1.10,2013-01-10 12:17:00,
2013-01-10 07:33:00,69.7,69.0,30.25,SE,133,0.0,-999.0,97,-99.99,,,0.00,weatherlink.com 1.10,2013-01-10 12:33:00,
2013-01-10 07:47:00,69.7,69.0,30.25,SE,133,0.0,-999.0,97,-99.99,,,0.00,weatherlink.com 1.10,2013-01-10 12:47:00,
2013-01-10 08:02:00,70.7,70.0,30.25,SE,133,0.0,-999.0,96,-99.99,,,0.00,weatherlink.com 1.10,2013-01-10 13:02:00,
2013-01-10 08:17:00,72.0,70.0,30.25,SE,133,0.0,-999.0,94,-99.99,,,0.00,weatherlink.com 1.10,2013-01-10 13:17:00,
2013-01-10 08:32:00,73.1,70.0,30.26,SE,132,0.0,-999.0,91,-99.99,,,0.00,weatherlink.com 1.10,2013-01-10 13:32:00,
2013-01-10 08:47:00,73.8,71.0,30.26,ESE,108,0.0,-999.0,90,-99.99,,,0.00,weatherlink.com 1.10,2013-01-10 13:47:00,
2013-01-10 09:02:00,74.4,71.0,30.26,SE,128,9.0,-999.0,88,-99.99,,,0.00,weatherlink.com 1.10,2013-01-10 14:02:00,
2013-01-10 09:17:00,75.0,71.0,30.26,ESE,118,6.0,-999.0,87,-99.99,,,0.00,weatherlink.com 1.10,2013-01-10 14:17:00,
2013-01-10 09:32:00,75.3,71.0,30.26,ESE,107,5.0,-999.0,85,-99.99,,,0.00,weatherlink.com 1.10,2013-01-10 14:32:00,
2013-01-10 09:47:00,76.0,71.0,30.26,East,100,4.0,-999.0,83,-99.99,,,0.00,weatherlink.com 1.10,2013-01-10 14:47:00,
2013-01-10 10:02:00,76.4,71.0,30.27,ENE,78,6.0,-999.0,83,-99.99,,,0.00,weatherlink.com 1.10,2013-01-10 15:02:00,
2013-01-10 10:17:00,76.8,71.0,30.27,ESE,105,7.0,-999.0,83,-99.99,,,0.00,weatherlink.com 1.10,2013-01-10 15:17:00,
2013-01-10 10:32:00,77.0,71.0,30.26,East,99,0.0,-999.0,82,-99.99,,,0.00,weatherlink.com 1.10,2013-01-10 15:32:00,
2013-01-10 10:47:00,77.2,71.0,30.25,SE,132,5.0,-999.0,81,-99.99,,,0.00,weatherlink.com 1.10,2013-01-10 15:47:00,
2013-01-10 11:02:00,77.3,71.0,30.24,ESE,123,5.0,-999.0,80,-99.99,,,0.00,weatherlink.com 1.10,2013-01-10 16:02:00,
2013-01-10 11:17:00,78.0,71.0,30.23,SE,130,0.0,-999.0,80,-99.99,,,0.00,weatherlink.com 1.10,2013-01-10 16:17:00,
2013-01-10 11:32:00,77.6,71.0,30.22,ESE,119,6.0,-999.0,79,-99.99,,,0.00,weatherlink.com 1.10,2013-01-10 16:32:00,
2013-01-10 11:47:00,77.8,71.0,30.22,ESE,103,0.0,-999.0,80,-99.99,,,0.00,weatherlink.com 1.10,2013-01-10 16:47:00,
2013-01-10 12:02:00,77.9,72.0,30.20,ESE,118,0.0,-999.0,81,-99.99,,,0.00,weatherlink.com 1.10,2013-01-10 17:02:00,
2013-01-10 12:17:00,77.6,71.0,30.20,ENE,78,12.0,-999.0,80,-99.99,,,0.00,weatherlink.com 1.10,2013-01-10 17:17:00,
2013-01-10 12:47:00,78.2,72.0,30.17,SE,133,12.0,-999.0,80,-99.99,,,0.00,weatherlink.com 1.10,2013-01-10 17:47:00,
2013-01-10 13:02:00,78.2,71.0,30.17,East,101,12.0,-999.0,78,-99.99,,,0.00,weatherlink.com 1.10,2013-01-10 18:02:00,
2013-01-10 13:17:00,77.6,70.0,30.17,SE,132,6.0,-999.0,78,-99.99,,,0.00,weatherlink.com 1.10,2013-01-10 18:17:00,
2013-01-10 13:33:00,77.7,71.0,30.17,SE,129,13.0,-999.0,79,-99.99,,,0.00,weatherlink.com 1.10,2013-01-10 18:33:00,
2013-01-10 13:48:00,77.8,70.0,30.17,SE,127,9.0,-999.0,78,-99.99,,,0.00,weatherlink.com 1.10,2013-01-10 18:48:00,
2013-01-10 14:03:00,77.2,70.0,30.17,ESE,119,12.0,-999.0,79,-99.99,,,0.00,weatherlink.com 1.10,2013-01-10 19:03:00,
2013-01-10 14:18:00,77.5,70.0,30.17,ESE,111,5.0,-999.0,77,-99.99,,,0.00,weatherlink.com 1.10,2013-01-10 19:18:00,
2013-01-10 14:33:00,77.3,69.0,30.18,SE,138,6.0,-999.0,75,-99.99,,,0.00,weatherlink.com 1.10,2013-01-10 19:33:00,
2013-01-10 14:48:00,77.3,69.0,30.19,ESE,113,7.0,-999.0,75,-99.99,,,0.00,weatherlink.com 1.10,2013-01-10 19:48:00,
2013-01-10 15:33:00,76.3,69.0,30.20,ESE,121,10.0,-999.0,77,-99.99,,,0.00,weatherlink.com 1.10,2013-01-10 20:33:00,
2013-01-10 15:48:00,76.5,68.0,30.20,SE,132,4.0,-999.0,75,-99.99,,,0.00,weatherlink.com 1.10,2013-01-10 20:48:00,
2013-01-10 16:03:00,76.0,68.0,30.21,ESE,112,7.0,-999.0,76,-99.99,,,0.00,weatherlink.com 1.10,2013-01-10 21:03:00,
2013-01-10 16:18:00,75.6,68.0,30.21,SE,141,11.0,-999.0,76,-99.99,,,0.00,weatherlink.com 1.10,2013-01-10 21:18:00,
2013-01-10 16:33:00,75.1,67.0,30.22,SE,130,5.0,-999.0,76,-99.99,,,0.00,weatherlink.com 1.10,2013-01-10 21:33:00,
2013-01-10 16:48:00,74.4,67.0,30.22,ESE,117,0.0,-999.0,78,-99.99,,,0.00,weatherlink.com 1.10,2013-01-10 21:48:00,
2013-01-10 17:18:00,73.6,68.0,30.22,East,96,0.0,-999.0,82,-99.99,,,0.00,weatherlink.com 1.10,2013-01-10 22:18:00,
2013-01-10 17:33:00,73.2,68.0,30.23,ESE,118,0.0,-999.0,83,-99.99,,,0.00,weatherlink.com 1.10,2013-01-10 22:33:00,
2013-01-10 17:48:00,72.6,68.0,30.23,ESE,111,0.0,-999.0,85,-99.99,,,0.00,weatherlink.com 1.10,2013-01-10 22:48:00,
2013-01-10 18:03:00,72.2,68.0,30.23,ESE,115,0.0,-999.0,87,-99.99,,,0.00,weatherlink.com 1.10,2013-01-10 23:03:00,
2013-01-10 18:18:00,71.6,68.0,30.22,ESE,117,0.0,-999.0,89,-99.99,,,0.00,weatherlink.com 1.10,2013-01-10 23:18:00,
2013-01-10 18:33:00,71.4,68.0,30.22,ESE,121,0.0,-999.0,89,-99.99,,,0.00,weatherlink.com 1.10,2013-01-10 23:33:00,
2013-01-10 18:48:00,71.6,68.0,30.22,ESE,117,5.0,-999.0,88,-99.99,,,0.00,weatherlink.com 1.10,2013-01-10 23:48:00,
2013-01-10 19:03:00,71.7,68.0,30.22,East,96,0.0,-999.0,88,-99.99,,,0.00,weatherlink.com 1.10,2013-01-11 00:03:00,
2013-01-10 19:18:00,71.7,68.0,30.22,ESE,118,0.0,-999.0,87,-99.99,,,0.00,weatherlink.com 1.10,2013-01-11 00:18:00,
2013-01-10 19:33:00,71.6,67.0,30.22,SE,127,0.0,-999.0,86,-99.99,,,0.00,weatherlink.com 1.10,2013-01-11 00:33:00,
2013-01-10 19:48:00,71.7,68.0,30.22,ESE,117,2.0,-999.0,87,-99.99,,,0.00,weatherlink.com 1.10,2013-01-11 00:48:00,
2013-01-10 20:03:00,71.3,67.0,30.22,ESE,123,0.0,-999.0,87,-99.99,,,0.00,weatherlink.com 1.10,2013-01-11 01:03:00,
2013-01-10 20:18:00,70.7,67.0,30.22,ESE,123,0.0,-999.0,88,-99.99,,,0.00,weatherlink.com 1.10,2013-01-11 01:18:00,
2013-01-10 20:33:00,70.2,67.0,30.23,ESE,123,0.0,-999.0,89,-99.99,,,0.00,weatherlink.com 1.10,2013-01-11 01:33:00,
2013-01-10 20:48:00,70.0,67.0,30.22,ESE,123,0.0,-999.0,90,-99.99,,,0.00,weatherlink.com 1.10,2013-01-11 01:48:00,
2013-01-10 21:03:00,70.5,67.0,30.22,ESE,122,2.0,-999.0,89,-99.99,,,0.00,weatherlink.com 1.10,2013-01-11 02:03:00,
2013-01-10 21:18:00,71.3,67.0,30.22,ESE,120,0.0,-999.0,87,-99.99,,,0.00,weatherlink.com 1.10,2013-01-11 02:18:00,
2013-01-10 21:33:00,71.2,68.0,30.23,ESE,121,0.0,-999.0,88,-99.99,,,0.00,weatherlink.com 1.10,2013-01-11 02:33:00,
2013-01-10 21:48:00,70.4,67.0,30.23,ESE,121,0.0,-999.0,90,-99.99,,,0.00,weatherlink.com 1.10,2013-01-11 02:48:00,
2013-01-10 22:03:00,69.1,67.0,30.23,ESE,121,0.0,-999.0,92,-99.99,,,0.00,weatherlink.com 1.10,2013-01-11 03:03:00,
2013-01-10 22:18:00,68.9,67.0,30.23,ESE,121,0.0,-999.0,92,-99.99,,,0.00,weatherlink.com 1.10,2013-01-11 03:18:00,
2013-01-10 22:33:00,68.3,66.0,30.23,ESE,121,0.0,-999.0,93,-99.99,,,0.00,weatherlink.com 1.10,2013-01-11 03:33:00,
2013-01-10 22:48:00,67.9,66.0,30.23,ESE,121,0.0,-999.0,94,-99.99,,,0.00,weatherlink.com 1.10,2013-01-11 03:48:00,
2013-01-10 23:03:00,67.6,66.0,30.23,ESE,121,0.0,-999.0,95,-99.99,,,0.00,weatherlink.com 1.10,2013-01-11 04:03:00,
2013-01-10 23:18:00,67.4,66.0,30.23,ESE,121,0.0,-999.0,95,-99.99,,,0.00,weatherlink.com 1.10,2013-01-11 04:18:00,
2013-01-10 23:33:00,67.2,66.0,30.23,ESE,121,0.0,-999.0,96,-99.99,,,0.00,weatherlink.com 1.10,2013-01-11 04:33:00,
2013-01-10 23:48:00,67.1,66.0,30.23,ESE,121,0.0,-999.0,96,-99.99,,,0.00,weatherlink.com 1.10,2013-01-11 04:48:00,